createdAt,value
2022-11-05T00:01:41.941Z,48.4
2022-11-05T00:07:00.530Z,48.8
2022-11-05T00:12:19.007Z,49.3
2022-11-05T00:17:37.520Z,49.2
2022-11-05T00:22:56.246Z,49
2022-11-05T00:28:15.034Z,48.7
2022-11-05T00:33:33.830Z,49.5
2022-11-05T00:38:52.294Z,48.8
2022-11-05T00:44:11.069Z,49.6
2022-11-05T00:49:29.885Z,48.9
2022-11-05T00:54:48.058Z,49.2
2022-11-05T01:00:06.841Z,49.1
2022-11-05T01:05:25.355Z,49.5
2022-11-05T01:10:44.135Z,49.1
2022-11-05T01:16:02.896Z,49.2
2022-11-05T01:21:21.774Z,50.1
2022-11-05T01:26:40.538Z,49.3
2022-11-05T01:31:59.319Z,49.3
2022-11-05T01:37:17.827Z,49.3
2022-11-05T01:42:36.572Z,49.8
2022-11-05T01:47:55.344Z,49.3
2022-11-05T01:53:14.531Z,49.6
2022-11-05T01:58:33.253Z,49.3
2022-11-05T02:03:52.017Z,50.1
2022-11-05T02:09:10.271Z,50
2022-11-05T02:14:29.005Z,50.6
2022-11-05T02:19:47.486Z,50.1
2022-11-05T02:25:06.098Z,49.9
2022-11-05T02:30:24.559Z,50.2
2022-11-05T02:35:42.769Z,50.3
2022-11-05T02:41:01.426Z,50
2022-11-05T02:46:20.165Z,49.7
2022-11-05T02:51:38.925Z,49.7
2022-11-05T02:56:57.730Z,50.3
2022-11-05T03:02:16.471Z,50.3
2022-11-05T03:07:35.012Z,49.6
2022-11-05T03:12:53.622Z,50.3
2022-11-05T03:18:12.432Z,50.4
2022-11-05T03:23:31.214Z,50.1
2022-11-05T03:28:49.754Z,49.6
2022-11-05T03:34:08.216Z,50.4
2022-11-05T03:39:26.989Z,50.4
2022-11-05T03:44:45.501Z,50.4
2022-11-05T03:49:48.353Z,49.7
2022-11-05T03:55:06.577Z,50.2
2022-11-05T04:00:25.180Z,50.3
2022-11-05T04:05:43.422Z,49.5
2022-11-05T04:11:01.915Z,49.9
2022-11-05T04:16:19.858Z,50.4
2022-11-05T04:21:38.055Z,49.8
2022-11-05T04:26:56.545Z,49.7
2022-11-05T04:32:15.248Z,50.3
2022-11-05T04:37:33.417Z,49.7
2022-11-05T04:42:51.898Z,50.1
2022-11-05T04:48:10.143Z,49.6
2022-11-05T04:53:28.596Z,49.5
2022-11-05T04:58:46.814Z,50.4
2022-11-05T05:04:05.327Z,50.4
2022-11-05T05:09:23.792Z,49.6
2022-11-05T05:14:42.565Z,49.6
2022-11-05T05:20:01.358Z,49.6
2022-11-05T05:25:19.528Z,49.5
2022-11-05T05:30:37.746Z,50.1
2022-11-05T05:35:56.068Z,50.2
2022-11-05T05:41:14.262Z,50.2
2022-11-05T05:46:33.017Z,50.3
2022-11-05T05:51:51.568Z,49.4
2022-11-05T05:57:10.083Z,49.4
2022-11-05T06:02:29.147Z,50
2022-11-05T06:07:47.523Z,50
2022-11-05T06:13:05.999Z,49.4
2022-11-05T06:18:24.469Z,49.4
2022-11-05T06:23:43.214Z,49.8
2022-11-05T06:29:01.399Z,49.4
2022-11-05T06:34:19.602Z,50.4
2022-11-05T06:39:38.243Z,49.9
2022-11-05T06:44:56.144Z,48.9
2022-11-05T06:50:14.350Z,48.8
2022-11-05T06:55:33.210Z,50.2
2022-11-05T07:00:51.560Z,49.6
2022-11-05T07:06:10.096Z,49.7
2022-11-05T07:11:28.632Z,50.1
2022-11-05T07:16:46.797Z,45.8
2022-11-05T07:22:05.003Z,47.8
2022-11-05T07:27:23.866Z,47.9
2022-11-05T07:32:42.349Z,47.6
2022-11-05T07:38:04.412Z,48.1
2022-11-05T07:43:23.437Z,48
2022-11-05T07:48:41.597Z,47.4
2022-11-05T07:53:59.771Z,48.1
2022-11-05T07:59:18.673Z,47.9
2022-11-05T08:04:37.417Z,47.8
2022-11-05T08:09:56.181Z,47.6
2022-11-05T08:15:14.742Z,47.1
2022-11-05T08:20:33.216Z,47.9
2022-11-05T08:25:51.977Z,48.1
2022-11-05T08:30:54.305Z,47.9
2022-11-05T08:36:13.059Z,47.3
2022-11-05T08:41:31.267Z,47.1
2022-11-05T08:46:50.049Z,47
2022-11-05T08:52:08.508Z,46.9
2022-11-05T08:57:27.018Z,41.4
2022-11-05T09:02:45.819Z,37.6
2022-11-05T09:08:04.393Z,40.2
2022-11-05T09:13:24.193Z,42
2022-11-05T09:18:42.890Z,40.4
2022-11-05T09:24:01.329Z,42.4
2022-11-05T09:29:20.052Z,43
2022-11-05T09:34:38.844Z,42.1
2022-11-05T09:39:57.301Z,40.3
2022-11-05T09:45:16.053Z,41
2022-11-05T09:50:34.757Z,41.9
2022-11-05T09:55:52.972Z,43.1
2022-11-05T10:01:11.818Z,43.7
2022-11-05T10:06:30.316Z,43.6
2022-11-05T10:11:49.042Z,43.1
2022-11-05T10:17:07.813Z,44.2
2022-11-05T10:22:26.167Z,43.7
2022-11-05T10:27:44.350Z,43.6
2022-11-05T10:33:03.115Z,44.6
2022-11-05T10:38:21.368Z,44.4
2022-11-05T10:43:40.103Z,44.1
2022-11-05T10:48:58.869Z,44.1
2022-11-05T10:54:17.874Z,44.9
2022-11-05T10:59:36.594Z,45.1
2022-11-05T11:04:55.360Z,45.7
2022-11-05T11:10:14.132Z,45.4
2022-11-05T11:15:32.887Z,38.3
2022-11-05T11:20:51.639Z,39.9
2022-11-05T11:26:10.428Z,41.6
2022-11-05T11:31:29.158Z,42.2
2022-11-05T11:36:47.912Z,42.8
2022-11-05T11:42:06.690Z,43.4
2022-11-05T11:47:25.162Z,43.5
2022-11-05T11:52:46.708Z,43.6
2022-11-05T11:58:05.253Z,43.3
2022-11-05T12:03:23.813Z,43.7
2022-11-05T12:08:56.504Z,43.4
2022-11-05T12:14:16.950Z,44.5
2022-11-05T12:19:35.691Z,44.2
2022-11-05T12:24:54.453Z,42.7
2022-11-05T12:30:12.992Z,42.1
2022-11-05T12:35:31.504Z,44.4
2022-11-05T12:40:50.260Z,44.9
2022-11-05T12:46:09.006Z,44.3
2022-11-05T12:51:27.462Z,44.8
2022-11-05T12:56:45.949Z,45.1
2022-11-05T13:02:05.325Z,44.3
2022-11-05T13:07:24.139Z,44.5
2022-11-05T13:12:42.902Z,44.5
2022-11-05T13:18:01.798Z,45.4
2022-11-05T13:23:20.510Z,44.3
2022-11-05T13:28:39.267Z,44.1
2022-11-05T13:33:58.153Z,44.8
2022-11-05T13:39:19.544Z,45.5
2022-11-05T13:44:38.258Z,44.9
2022-11-05T13:49:57.046Z,46.1
2022-11-05T13:55:15.785Z,45.9
2022-11-05T14:00:34.689Z,45.3
2022-11-05T14:05:53.208Z,45.4
2022-11-05T14:11:11.952Z,46.3
2022-11-05T14:16:30.717Z,46.3
2022-11-05T14:21:49.508Z,46.5
2022-11-05T14:27:08.221Z,46.6
2022-11-05T14:32:26.977Z,46.2
2022-11-05T14:37:45.769Z,46.4
2022-11-05T14:43:04.500Z,46.1
2022-11-05T14:48:23.259Z,46.4
2022-11-05T14:53:42.051Z,46.1
2022-11-05T14:59:00.805Z,46.6
2022-11-05T15:04:03.829Z,46.5
2022-11-05T15:09:22.750Z,46.3
2022-11-05T15:14:41.496Z,45.7
2022-11-05T15:20:00.290Z,45.6
2022-11-05T15:25:19.208Z,45.8
2022-11-05T15:30:37.928Z,46.3
2022-11-05T15:35:56.662Z,45.6
2022-11-05T15:41:15.498Z,46.3
2022-11-05T15:46:34.233Z,47
2022-11-05T15:51:53.010Z,46.9
2022-11-05T15:57:11.917Z,47.1
2022-11-05T16:02:31.316Z,47.3
2022-11-05T16:07:50.137Z,46.8
2022-11-05T16:13:08.387Z,47.5
2022-11-05T16:18:26.654Z,47.1
2022-11-05T16:23:44.844Z,47.3
2022-11-05T16:29:03.357Z,48.1
2022-11-05T16:34:21.834Z,47.8
2022-11-05T16:39:40.561Z,47.7
2022-11-05T16:44:58.858Z,47.5
2022-11-05T16:50:17.040Z,47.6
2022-11-05T16:55:37.183Z,47.7
2022-11-05T17:00:55.756Z,47.4
2022-11-05T17:06:14.208Z,47.7
2022-11-05T17:11:32.949Z,47
2022-11-05T17:16:51.453Z,47.6
2022-11-05T17:22:10.208Z,47.5
2022-11-05T17:27:28.966Z,46.9
2022-11-05T17:32:48.202Z,47.7
2022-11-05T17:38:07.042Z,46.9
2022-11-05T17:43:25.782Z,47.7
2022-11-05T17:48:44.284Z,47.9
2022-11-05T17:54:02.747Z,48
2022-11-05T17:59:21.236Z,47.7
2022-11-05T18:04:39.998Z,47
2022-11-05T18:09:58.710Z,47.8
2022-11-05T18:15:17.472Z,45.3
2022-11-05T18:20:36.066Z,46.9
2022-11-05T18:25:54.805Z,47.8
2022-11-05T18:31:19.121Z,47.3
2022-11-05T18:36:37.861Z,47.2
2022-11-05T18:41:56.055Z,47.2
2022-11-05T18:47:13.998Z,47.3
2022-11-05T18:52:32.811Z,47.1
2022-11-05T18:57:51.523Z,42.8
2022-11-05T19:03:10.022Z,45.2
2022-11-05T19:08:28.855Z,45.9
2022-11-05T19:13:47.303Z,46.4
2022-11-05T19:19:06.056Z,46.8
2022-11-05T19:24:24.675Z,47.1
2022-11-05T19:29:42.876Z,47.5
2022-11-05T19:35:01.376Z,48.1
2022-11-05T19:40:20.211Z,48.1
2022-11-05T19:45:45.771Z,47.2
2022-11-05T19:51:04.539Z,47.8
2022-11-05T19:56:23.684Z,48.1
2022-11-05T20:01:42.228Z,48.1
2022-11-05T20:07:01.043Z,48
2022-11-05T20:12:19.821Z,47.7
2022-11-05T20:17:38.575Z,48
2022-11-05T20:22:57.359Z,47.3
2022-11-05T20:28:00.234Z,46.1
2022-11-05T20:33:18.697Z,46.9
2022-11-05T20:38:37.454Z,47.8
2022-11-05T20:43:56.340Z,47.6
2022-11-05T20:49:14.822Z,47.5
2022-11-05T20:54:33.310Z,48.1
2022-11-05T20:59:51.446Z,48.3
2022-11-05T21:05:09.888Z,48.4
2022-11-05T21:10:28.384Z,48.2
2022-11-05T21:15:46.941Z,47.6
2022-11-05T21:21:05.408Z,47.7
2022-11-05T21:26:23.612Z,48.3
2022-11-05T21:31:42.170Z,48.4
2022-11-05T21:37:00.090Z,47.7
2022-11-05T21:42:18.271Z,48.4
2022-11-05T21:47:36.589Z,47.9
2022-11-05T21:52:55.058Z,48.7
2022-11-05T21:58:14.361Z,49.1
2022-11-05T22:03:32.777Z,48.7
2022-11-05T22:08:51.512Z,48.4
2022-11-05T22:14:10.291Z,47.6
2022-11-05T22:19:28.648Z,48.4
2022-11-05T22:24:47.122Z,48.2
2022-11-05T22:30:05.875Z,48.2
2022-11-05T22:35:24.653Z,48
2022-11-05T22:40:42.833Z,48.2
2022-11-05T22:46:01.299Z,49.6
2022-11-05T22:51:19.831Z,48.6
2022-11-05T22:56:38.531Z,49
2022-11-05T23:01:57.860Z,49.1
2022-11-05T23:07:16.529Z,49.6
2022-11-05T23:12:34.990Z,48.7
2022-11-05T23:17:53.205Z,49.9
2022-11-05T23:23:11.526Z,49.7
2022-11-05T23:28:29.692Z,48.9
2022-11-05T23:33:48.474Z,49.9
2022-11-05T23:39:06.524Z,49.1
2022-11-05T23:44:25.267Z,49.8
2022-11-05T23:49:43.475Z,49.4
2022-11-05T23:55:02.267Z,49.1
